.
WxDataArchive / Data Records for 2007-01-06
2007-01-05 January 2007 2007-01-07

Data Records for Saturday, 06 January 2007

Time	Temp	Chill	HIndex	Humid	Dewpt	 Wind 	HiWind	WindDir	Rain 	Barom 
-----	----	-----	------	-----	-----	------	------	-------	-----	----- 
00:00	48.3	48.3	48.3	99	48.0	2	6	270	0.00	29.621 
00:05	48.3	48.3	48.3	99	48.0	2	6	248	0.00	29.621 
00:10	48.2	48.2	48.2	99	47.9	1	3	248	0.00	29.621 
00:15	48.2	48.2	48.2	99	47.9	1	3	248	0.00	29.618 
00:20	48.2	48.2	48.2	99	47.9	1	4	248	0.00	29.618 
00:25	48.2	48.2	48.2	99	47.9	0	2	248	0.00	29.618 
00:30	48.2	48.2	48.2	99	47.9	1	3	248	0.00	29.619 
00:35	48.2	48.2	48.2	99	47.9	1	4	248	0.00	29.619 
00:40	48.2	48.2	48.2	99	47.9	1	2	248	0.00	29.619 
00:45	48.2	48.2	48.2	99	47.9	1	2	248	0.01	29.615 
00:50	48.0	48.0	48.0	99	47.7	1	2	248	0.00	29.615 
00:55	48.0	48.0	48.0	99	47.7	1	3	248	0.00	29.615 
01:00	48.0	48.0	48.0	99	47.7	1	3	248	0.00	29.617 
01:05	48.0	48.0	48.0	99	47.7	1	5	248	0.00	29.617 
01:10	48.0	48.0	48.0	99	47.7	2	5	248	0.00	29.617 
01:15	48.0	48.0	48.0	99	47.7	2	4	248	0.00	29.618 
01:20	47.9	47.9	47.9	99	47.6	1	4	270	0.00	29.618 
01:25	47.9	47.9	47.9	99	47.6	2	4	248	0.00	29.618 
01:30	47.9	47.9	47.9	99	47.6	1	3	248	0.00	29.618 
01:35	47.9	47.9	47.9	99	47.6	2	6	248	0.00	29.618 
01:40	47.9	47.9	47.9	99	47.6	2	6	248	0.00	29.618 
01:45	47.9	47.9	47.9	99	47.6	3	6	248	0.00	29.620 
01:50	48.0	48.0	48.0	99	47.7	2	4	248	0.00	29.620 
01:55	48.0	48.0	48.0	99	47.7	3	7	248	0.00	29.620 
02:00	48.0	48.0	48.0	99	47.7	3	9	248	0.00	29.630 
02:05	48.0	48.0	48.0	99	47.7	2	5	270	0.00	29.630 
02:10	48.0	48.0	48.0	98	47.5	2	7	248	0.00	29.630 
02:15	48.0	48.0	48.0	98	47.5	3	7	248	0.00	29.630 
02:20	48.0	46.6	48.0	98	47.5	4	9	248	0.00	29.630 
02:25	48.0	48.0	48.0	98	47.5	2	5	248	0.00	29.630 
02:30	48.0	48.0	48.0	98	47.5	3	5	248	0.00	29.630 
02:35	48.0	48.0	48.0	98	47.5	2	5	248	0.00	29.630 
02:40	48.0	48.0	48.0	97	47.2	3	7	248	0.00	29.630 
02:45	48.0	48.0	48.0	97	47.2	1	5	248	0.00	29.635 
02:50	48.0	48.0	48.0	97	47.2	2	5	248	0.00	29.635 
02:55	48.0	48.0	48.0	97	47.2	1	3	248	0.00	29.635 
03:00	48.0	48.0	48.0	97	47.2	2	7	248	0.00	29.632 
03:05	48.0	48.0	48.0	97	47.2	2	4	248	0.00	29.632 
03:10	48.0	48.0	48.0	97	47.2	2	5	248	0.00	29.632 
03:15	48.0	48.0	48.0	97	47.2	2	6	248	0.00	29.636 
03:20	48.0	48.0	48.0	97	47.2	2	5	248	0.00	29.636 
03:25	48.0	48.0	48.0	97	47.2	3	6	248	0.00	29.636 
03:30	48.0	48.0	48.0	97	47.2	3	7	270	0.00	29.640 
03:35	48.0	48.0	48.0	96	46.9	3	8	248	0.01	29.640 
03:40	48.0	48.0	48.0	96	46.9	2	5	248	0.00	29.640 
03:45	48.0	48.0	48.0	96	46.9	3	12	248	0.00	29.644 
03:50	47.9	47.9	47.9	96	46.8	3	8	270	0.00	29.644 
03:55	47.9	46.4	47.9	96	46.8	4	14	248	0.01	29.644 
04:00	47.7	45.5	47.7	96	46.6	5	14	270	0.00	29.645 
04:05	47.7	45.5	47.7	96	46.6	5	11	248	0.00	29.645 
04:10	47.7	45.5	47.7	96	46.6	5	11	248	0.00	29.645 
04:15	47.7	45.5	47.7	95	46.3	5	14	248	0.00	29.649 
04:20	47.7	44.9	47.7	95	46.3	6	14	248	0.00	29.649 
04:25	47.6	47.6	47.6	95	46.2	3	10	248	0.00	29.649 
04:30	47.6	45.4	47.6	95	46.2	5	11	270	0.00	29.650 
04:35	47.6	46.1	47.6	95	46.2	4	14	248	0.00	29.650 
04:40	47.4	45.9	47.4	95	46.0	4	11	270	0.00	29.650 
04:45	47.4	45.9	47.4	94	45.8	4	9	270	0.00	29.647 
04:50	47.4	45.9	47.4	94	45.8	4	11	248	0.00	29.647 
04:55	47.3	45.8	47.3	94	45.7	4	7	270	0.00	29.647 
05:00	47.3	45.8	47.3	93	45.4	4	9	248	0.00	29.652 
05:05	47.3	45.0	47.3	93	45.4	5	12	248	0.00	29.652 
05:10	47.3	47.3	47.3	92	45.1	3	8	270	0.00	29.652 
05:15	47.1	47.1	47.1	92	44.9	3	11	270	0.00	29.653 
05:20	47.1	44.8	47.1	92	44.9	5	13	270	0.00	29.653 
05:25	47.1	44.8	47.1	91	44.6	5	13	270	0.00	29.653 
05:30	47.1	45.5	47.1	91	44.6	4	11	248	0.00	29.662 
05:35	47.0	45.4	47.0	91	44.5	4	10	270	0.00	29.662 
05:40	47.0	45.4	47.0	91	44.5	4	11	270	0.00	29.662 
05:45	47.0	45.4	47.0	91	44.5	4	11	248	0.00	29.668 
05:50	46.8	44.5	46.8	90	44.0	5	12	248	0.00	29.668 
05:55	46.8	43.9	46.8	90	44.0	6	12	270	0.00	29.668 
06:00	46.8	45.2	46.8	90	44.0	4	11	270	0.00	29.664 
06:05	46.8	44.5	46.8	89	43.7	5	11	270	0.00	29.664 
06:10	46.8	44.5	46.8	90	44.0	5	11	270	0.00	29.664 
06:15	46.7	45.1	46.7	90	43.9	4	11	270	0.00	29.680 
06:20	46.7	45.1	46.7	90	43.9	4	9	248	0.00	29.680 
06:25	46.7	45.1	46.7	90	43.9	4	11	270	0.00	29.680 
06:30	46.7	46.7	46.7	90	43.9	3	11	270	0.00	29.682 
06:35	46.7	45.1	46.7	90	43.9	4	9	270	0.00	29.682 
06:40	46.7	44.3	46.7	90	43.9	5	12	270	0.00	29.682 
06:45	46.7	45.1	46.7	90	43.9	4	10	248	0.00	29.685 
06:50	46.5	46.5	46.5	90	43.7	3	9	248	0.00	29.685 
06:55	46.5	44.8	46.5	91	44.0	4	11	248	0.00	29.685 
07:00	46.4	44.7	46.4	91	43.9	4	11	270	0.00	29.698 
07:05	46.4	46.4	46.4	92	44.2	2	7	270	0.00	29.698 
07:10	45.5	45.5	45.5	91	43.0	3	7	270	0.00	29.698 
07:15	44.9	44.9	44.9	91	42.4	2	5	270	0.00	29.720 
07:20	44.2	44.2	44.2	90	41.5	2	5	292	0.00	29.720 
07:25	43.8	43.8	43.8	91	41.3	2	5	270	0.00	29.720 
07:30	43.3	43.3	43.3	90	40.6	2	6	315	0.00	29.738 
07:35	43.2	43.2	43.2	90	40.5	2	6	270	0.00	29.738 
07:40	42.9	42.9	42.9	90	40.2	2	4	292	0.00	29.738 
07:45	42.8	42.8	42.8	91	40.4	2	4	270	0.00	29.751 
07:50	42.8	42.8	42.8	92	40.6	1	5	270	0.00	29.751 
07:55	42.6	42.6	42.6	92	40.4	1	5	292	0.00	29.751 
08:00	42.6	42.6	42.6	92	40.4	2	6	270	0.00	29.759 
08:05	42.5	42.5	42.5	92	40.3	3	7	270	0.00	29.759 
08:10	42.5	42.5	42.5	92	40.3	2	5	315	0.00	29.759 
08:15	42.5	42.5	42.5	92	40.3	2	6	338	0.00	29.769 
08:20	42.3	42.3	42.3	92	40.1	2	4	315	0.00	29.769 
08:25	42.2	42.2	42.2	91	39.8	2	6	292	0.00	29.769 
08:30	42.1	42.1	42.1	91	39.7	2	4	315	0.00	29.782 
08:35	41.9	41.9	41.9	90	39.2	2	6	270	0.00	29.782 
08:40	41.8	41.8	41.8	91	39.4	2	6	270	0.00	29.782 
08:45	41.8	41.8	41.8	91	39.4	1	3	315	0.00	29.799 
08:50	41.8	41.8	41.8	91	39.4	2	4	270	0.00	29.799 
08:55	41.6	41.6	41.6	91	39.2	2	6	270	0.00	29.799 
09:00	41.6	41.6	41.6	91	39.2	2	4	248	0.00	29.813 
09:05	41.6	41.6	41.6	91	39.2	1	3	270	0.00	29.813 
09:10	41.6	41.6	41.6	90	38.9	2	3	248	0.01	29.813 
09:15	41.6	41.6	41.6	90	38.9	1	3	270	0.00	29.820 
09:20	41.6	41.6	41.6	89	38.6	2	4	270	0.00	29.820 
09:25	41.6	41.6	41.6	88	38.3	2	6	270	0.00	29.820 
09:30	41.6	41.6	41.6	87	38.0	3	5	270	0.00	29.833 
09:35	41.5	41.5	41.5	86	37.6	2	5	270	0.00	29.833 
09:40	41.5	41.5	41.5	87	37.9	2	5	270	0.00	29.833 
09:45	41.5	41.5	41.5	88	38.2	2	5	270	0.00	29.846 
09:50	41.5	41.5	41.5	87	37.9	3	6	315	0.00	29.846 
09:55	41.5	41.5	41.5	87	37.9	2	5	315	0.00	29.846 
10:00	41.5	41.5	41.5	87	37.9	2	4	292	0.00	29.861 
10:05	41.5	41.5	41.5	87	37.9	2	7	270	0.00	29.861 
10:10	41.5	41.5	41.5	87	37.9	2	6	292	0.00	29.861 
10:15	41.5	41.5	41.5	87	37.9	1	6	315	0.00	29.861 
10:20	41.6	41.6	41.6	88	38.3	1	4	270	0.00	29.861 
10:25	41.8	41.8	41.8	87	38.2	1	3	270	0.00	29.861 
10:30	41.9	41.9	41.9	87	38.3	2	5	270	0.00	29.869 
10:35	42.1	42.1	42.1	85	37.9	3	9	270	0.00	29.869 
10:40	41.9	41.9	41.9	84	37.4	3	6	270	0.00	29.869 
10:45	41.9	41.9	41.9	84	37.4	3	7	315	0.00	29.877 
10:50	42.2	42.2	42.2	85	38.0	1	3	270	0.00	29.877 
10:55	42.2	42.2	42.2	85	38.0	2	6	270	0.00	29.877 
11:00	42.2	42.2	42.2	85	38.0	2	4	270	0.00	29.882 
11:05	42.2	42.2	42.2	84	37.7	2	5	270	0.00	29.882 
11:10	42.1	42.1	42.1	84	37.6	2	6	315	0.00	29.882 
11:15	42.1	42.1	42.1	84	37.6	2	5	270	0.00	29.890 
11:20	42.1	42.1	42.1	84	37.6	3	6	270	0.00	29.890 
11:25	42.2	42.2	42.2	84	37.7	2	8	270	0.00	29.890 
11:30	42.3	42.3	42.3	83	37.5	3	6	270	0.00	29.894 
11:35	42.2	42.2	42.2	82	37.1	3	5	270	0.00	29.894 
11:40	42.2	42.2	42.2	83	37.4	2	4	292	0.00	29.894 
11:45	42.3	42.3	42.3	83	37.5	2	5	270	0.00	29.895 
11:50	42.2	42.2	42.2	81	36.8	2	4	292	0.00	29.895 
11:55	42.2	42.2	42.2	80	36.5	3	9	292	0.00	29.895 
12:00	42.1	42.1	42.1	81	36.7	3	5	270	0.00	29.897 
12:05	41.9	41.9	41.9	82	36.8	2	6	270	0.00	29.897 
12:10	41.9	41.9	41.9	81	36.5	3	7	270	0.00	29.897 
12:15	41.8	41.8	41.8	81	36.4	2	5	292	0.00	29.899 
12:20	41.6	41.6	41.6	81	36.2	3	7	270	0.00	29.899 
12:25	41.8	41.8	41.8	82	36.7	2	7	270	0.00	29.899 
12:30	42.1	42.1	42.1	81	36.7	3	10	270	0.00	29.903 
12:35	42.1	42.1	42.1	79	36.1	3	7	270	0.00	29.903 
12:40	41.9	39.5	41.9	79	35.9	4	9	270	0.00	29.903 
12:45	41.6	41.6	41.6	80	35.9	2	7	292	0.00	29.907 
12:50	41.5	41.5	41.5	80	35.8	2	7	270	0.00	29.907 
12:55	41.5	41.5	41.5	80	35.8	3	7	270	0.00	29.907 
13:00	41.5	39.1	41.5	78	35.2	4	10	270	0.00	29.910 
13:05	41.6	41.6	41.6	78	35.3	3	7	292	0.00	29.910 
13:10	41.6	41.6	41.6	78	35.3	3	7	270	0.00	29.910 
13:15	41.5	41.5	41.5	78	35.2	3	7	270	0.00	29.913 
13:20	41.6	41.6	41.6	77	34.9	2	6	270	0.00	29.913 
13:25	41.6	41.6	41.6	78	35.3	2	5	270	0.00	29.913 
13:30	41.6	41.6	41.6	78	35.3	2	4	270	0.00	29.911 
13:35	41.6	41.6	41.6	78	35.3	2	5	270	0.00	29.911 
13:40	41.5	41.5	41.5	78	35.2	2	6	315	0.00	29.911 
13:45	41.6	41.6	41.6	77	34.9	1	3	292	0.00	29.912 
13:50	41.8	41.8	41.8	77	35.1	2	5	315	0.00	29.912 
13:55	42.1	42.1	42.1	77	35.4	2	5	270	0.00	29.912 
14:00	42.6	42.6	42.6	78	36.2	1	4	270	0.00	29.914 
14:05	43.1	43.1	43.1	76	36.1	2	7	270	0.00	29.914 
14:10	43.2	43.2	43.2	74	35.5	3	5	270	0.00	29.914 
14:15	43.1	43.1	43.1	75	35.7	2	5	270	0.00	29.922 
14:20	42.9	42.9	42.9	74	35.2	2	7	292	0.00	29.922 
14:25	43.1	43.1	43.1	75	35.7	2	6	292	0.00	29.922 
14:30	43.5	43.5	43.5	68	33.7	3	9	270	0.00	29.926 
14:35	43.6	41.5	43.6	69	34.1	4	13	270	0.00	29.926 
14:40	43.8	43.8	43.8	68	33.9	3	6	270	0.00	29.926 
14:45	44.1	44.1	44.1	70	35.0	2	7	270	0.00	29.935 
14:50	44.2	44.2	44.2	68	34.3	3	9	270	0.00	29.935 
14:55	44.6	44.6	44.6	66	34.0	3	7	270	0.00	29.935 
15:00	44.8	42.9	44.8	65	33.8	4	13	270	0.00	29.941 
15:05	44.6	44.6	44.6	66	34.0	3	9	270	0.00	29.941 
15:10	44.5	44.5	44.5	68	34.6	3	9	270	0.00	29.941 
15:15	44.3	42.3	44.3	67	34.0	4	10	270	0.00	29.954 
15:20	43.9	43.9	43.9	68	34.0	3	9	270	0.00	29.954 
15:25	43.8	43.8	43.8	68	33.9	3	14	270	0.00	29.954 
15:30	43.6	43.6	43.6	67	33.4	3	6	270	0.00	29.961 
15:35	43.6	43.6	43.6	68	33.7	3	7	270	0.00	29.961 
15:40	43.2	43.2	43.2	66	32.6	3	7	270	0.00	29.961 
15:45	42.9	42.9	42.9	67	32.7	3	7	270	0.00	29.972 
15:50	42.8	42.8	42.8	68	33.0	2	5	270	0.00	29.972 
15:55	42.8	42.8	42.8	69	33.3	1	4	270	0.00	29.972 
16:00	43.3	43.3	43.3	69	33.8	2	5	248	0.00	29.981 
16:05	43.5	43.5	43.5	69	34.0	1	4	270	0.00	29.981 
16:10	43.5	43.5	43.5	68	33.7	2	5	270	0.00	29.981 
16:15	43.3	43.3	43.3	69	33.8	1	4	248	0.00	29.989 
16:20	43.3	43.3	43.3	69	33.8	1	3	248	0.00	29.989 
16:25	43.2	43.2	43.2	69	33.7	2	5	270	0.00	29.989 
16:30	42.9	42.9	42.9	69	33.4	2	6	270	0.00	29.992 
16:35	42.9	42.9	42.9	68	33.1	2	10	270	0.00	29.992 
16:40	42.9	42.9	42.9	66	32.3	3	11	270	0.00	29.992 
16:45	42.9	42.9	42.9	66	32.3	2	4	270	0.00	30.001 
16:50	42.9	42.9	42.9	67	32.7	2	4	248	0.00	30.001 
16:55	42.8	42.8	42.8	69	33.3	2	5	270	0.00	30.001 
17:00	42.5	42.5	42.5	70	33.4	2	5	248	0.00	30.007 
17:05	42.2	42.2	42.2	69	32.8	1	3	270	0.00	30.007 
17:10	41.8	41.8	41.8	69	32.4	1	6	270	0.00	30.007 
17:15	41.5	41.5	41.5	69	32.1	1	4	248	0.00	30.018 
17:20	41.2	41.2	41.2	69	31.8	1	4	248	0.00	30.018 
17:25	40.9	40.9	40.9	70	31.9	1	4	248	0.00	30.018 
17:30	40.8	40.8	40.8	70	31.8	1	4	248	0.00	30.023 
17:35	40.5	40.5	40.5	71	31.8	0	2	248	0.00	30.023 
17:40	40.3	40.3	40.3	72	32.0	0	2	248	0.00	30.023 
17:45	40.1	40.1	40.1	72	31.8	0	2	248	0.00	30.028 
17:50	39.8	39.8	39.8	73	31.9	0	2	248	0.00	30.028 
17:55	39.5	39.5	39.5	74	31.9	0	2	248	0.00	30.028 
18:00	39.3	39.3	39.3	74	31.7	0	2	248	0.00	30.039 
18:05	39.1	39.1	39.1	75	31.9	0	2	248	0.00	30.039 
18:10	39.1	39.1	39.1	76	32.2	0	1	248	0.00	30.039 
18:15	39.1	39.1	39.1	77	32.5	1	2	225	0.00	30.044 
18:20	38.9	38.9	38.9	77	32.3	0	1	270	0.00	30.044 
18:25	38.9	38.9	38.9	77	32.3	1	5	248	0.00	30.044 
18:30	38.8	38.8	38.8	78	32.5	0	2	248	0.00	30.058 
18:35	38.8	38.8	38.8	78	32.5	1	4	248	0.00	30.058 
18:40	38.6	38.6	38.6	78	32.3	0	3	248	0.00	30.058 
18:45	38.6	38.6	38.6	79	32.7	1	4	248	0.00	30.064 
18:50	38.5	38.5	38.5	79	32.6	0	2	248	0.00	30.064 
18:55	38.3	38.3	38.3	79	32.4	1	4	248	0.00	30.064 
19:00	38.3	38.3	38.3	79	32.4	1	5	248	0.00	30.075 
19:05	38.3	38.3	38.3	80	32.7	2	4	248	0.00	30.075 
19:10	38.3	38.3	38.3	80	32.7	2	7	248	0.00	30.075 
19:15	38.3	38.3	38.3	80	32.7	1	5	248	0.00	30.092 
19:20	38.2	38.2	38.2	81	32.9	2	5	248	0.00	30.092 
19:25	38.2	38.2	38.2	81	32.9	2	7	248	0.00	30.092 
19:30	38.0	38.0	38.0	81	32.7	2	5	248	0.00	30.097 
19:35	38.0	38.0	38.0	81	32.7	2	5	248	0.00	30.097 
19:40	37.9	37.9	37.9	81	32.6	2	4	248	0.00	30.097 
19:45	37.9	37.9	37.9	81	32.6	2	6	248	0.00	30.103 
19:50	37.8	37.8	37.8	81	32.5	2	6	248	0.00	30.103 
19:55	37.8	37.8	37.8	81	32.5	2	6	270	0.00	30.103 
20:00	37.6	37.6	37.6	81	32.3	1	3	248	0.00	30.108 
20:05	37.5	37.5	37.5	81	32.2	2	6	248	0.00	30.108 
20:10	37.3	37.3	37.3	82	32.3	2	6	248	0.00	30.108 
20:15	37.3	37.3	37.3	82	32.3	2	9	248	0.00	30.120 
20:20	37.3	37.3	37.3	82	32.3	2	7	270	0.00	30.120 
20:25	37.2	37.2	37.2	82	32.2	2	6	248	0.00	30.120 
20:30	37.0	37.0	37.0	82	32.0	1	5	248	0.00	30.127 
20:35	36.8	36.8	36.8	82	31.8	2	6	248	0.00	30.127 
20:40	36.8	36.8	36.8	82	31.8	2	7	248	0.00	30.127 
20:45	36.6	36.6	36.6	82	31.6	1	4	225	0.00	30.133 
20:50	36.5	36.5	36.5	82	31.5	1	4	248	0.00	30.133 
20:55	36.5	36.5	36.5	82	31.5	2	7	270	0.00	30.133 
21:00	36.3	36.3	36.3	82	31.3	1	4	248	0.00	30.142 
21:05	36.2	36.2	36.2	83	31.5	1	3	248	0.00	30.142 
21:10	35.9	35.9	35.9	83	31.2	1	3	248	0.00	30.142 
21:15	35.8	35.8	35.8	84	31.4	1	4	248	0.00	30.143 
21:20	35.8	35.8	35.8	84	31.4	1	4	248	0.00	30.143 
21:25	35.6	35.6	35.6	84	31.3	1	2	225	0.00	30.143 
21:30	35.5	35.5	35.5	84	31.2	0	2	270	0.00	30.148 
21:35	35.5	35.5	35.5	84	31.2	1	4	248	0.00	30.148 
21:40	35.3	35.3	35.3	84	31.0	1	4	248	0.00	30.148 
21:45	35.3	35.3	35.3	84	31.0	1	3	270	0.00	30.153 
21:50	35.2	35.2	35.2	85	31.2	1	3	248	0.00	30.153 
21:55	35.0	35.0	35.0	85	31.0	0	2	248	0.00	30.153 
22:00	34.9	34.9	34.9	85	30.9	0	2	248	0.00	30.155 
22:05	34.7	34.7	34.7	85	30.7	0	3	248	0.00	30.155 
22:10	34.6	34.6	34.6	85	30.6	0	2	248	0.00	30.155 
22:15	34.4	34.4	34.4	86	30.7	0	2	248	0.00	30.157 
22:20	34.3	34.3	34.3	86	30.6	0	2	248	0.00	30.157 
22:25	34.1	34.1	34.1	86	30.4	0	1	248	0.00	30.157 
22:30	34.0	34.0	34.0	87	30.5	0	3	248	0.00	30.159 
22:35	34.0	34.0	34.0	87	30.5	0	1	248	0.00	30.159 
22:40	33.8	33.8	33.8	87	30.3	0	1	248	0.00	30.159 
22:45	33.7	33.7	33.7	88	30.5	0	1	248	0.00	30.160 
22:50	33.5	33.5	33.5	88	30.3	0	1	248	0.00	30.160 
22:55	33.5	33.5	33.5	88	30.3	0	1	248	0.00	30.160 
23:00	33.5	33.5	33.5	88	30.3	0	0	---	0.00	30.161 
23:05	33.4	33.4	33.4	88	30.2	0	1	248	0.00	30.161 
23:10	33.2	33.2	33.2	88	30.0	0	1	248	0.00	30.161 
23:15	33.1	33.1	33.1	89	30.2	0	1	248	0.00	30.161 
23:20	32.8	32.8	32.8	89	29.9	0	0	---	0.00	30.161 
23:25	32.7	32.7	32.7	89	29.8	0	0	---	0.00	30.161 
23:30	32.5	32.5	32.5	90	29.9	0	0	---	0.00	30.158 
23:35	32.4	32.4	32.4	90	29.8	0	0	---	0.00	30.158 
23:40	32.2	32.2	32.2	90	29.6	0	0	---	0.00	30.158 
23:45	31.9	31.9	31.9	90	29.3	0	0	---	0.00	30.159 
23:50	31.6	31.6	31.6	90	29.0	0	0	---	0.00	30.159 
23:55	31.3	31.3	31.3	90	28.7	0	0	---	0.00	30.159 

CoCoRaHS
IN-AL-39
A2 Web Hosting
Creative Commons License
GoDaddy
Look for:

loaded 2017-12-13 16:03:33 • last modified 2010-11-18 10:43:29
Privacy PolicyDisclaimer
• wx.awcolley.com is powered by PmWiki v.2002016 •
• all content (unless otherwise noted) © 2017 A W Colley